Time;durP1;ratioP1;P1;durP2;ratioP2;P2;SDS_P1;SDS_P2;PMS_P1;PMS_P2;Temp;Humidity;BMP_temperature;BMP_pressure;BME280_temperature;BME280_humidity;BME280_pressure;Samples;Min_cycle;Max_cycle;Signal;HPM_P1;HPM_P2
2022/09/03 00:02:54;;;;;;;2.40;2.10;;;16.40;99.90;;;;;;5113419;28;20168;-65
2022/09/03 00:05:33;;;;;;;3.10;2.20;;;16.40;99.90;;;;;;5094469;28;20211;-65
2022/09/03 00:08:10;;;;;;;3.03;2.10;;;16.40;99.90;;;;;;5114927;28;20270;-65
2022/09/03 00:11:10;;;;;;;3.85;1.92;;;16.30;99.90;;;;;;5114566;28;20180;-65
2022/09/03 00:13:42;;;;;;;2.92;2.35;;;16.30;99.90;;;;;;5114700;28;20175;-65
2022/09/03 00:16:11;;;;;;;2.47;2.13;;;16.20;99.90;;;;;;5116313;28;20279;-65
2022/09/03 00:18:51;;;;;;;2.75;1.90;;;16.20;99.90;;;;;;5114700;28;20173;-66
2022/09/03 00:21:33;;;;;;;3.47;2.15;;;16.20;99.90;;;;;;5113033;28;20244;-65
2022/09/03 00:24:02;;;;;;;2.17;2.00;;;16.20;99.90;;;;;;5114831;28;20245;-66
2022/09/03 00:26:34;;;;;;;2.42;2.22;;;16.20;99.90;;;;;;5114277;28;20218;-65
2022/09/03 00:29:13;;;;;;;2.38;1.90;;;16.20;99.90;;;;;;5113966;28;20726;-65
2022/09/03 00:31:50;;;;;;;2.08;1.95;;;16.20;99.90;;;;;;5115573;28;20176;-65
2022/09/03 00:34:25;;;;;;;2.30;2.10;;;16.10;99.90;;;;;;5118457;27;20209;-65
2022/09/03 00:36:51;;;;;;;2.10;1.90;;;16.10;99.90;;;;;;5117034;28;20231;-65
2022/09/03 00:39:20;;;;;;;3.35;2.15;;;16.00;99.90;;;;;;5118068;28;20729;-65
2022/09/03 00:42:17;;;;;;;3.78;2.22;;;15.90;99.90;;;;;;5118669;28;20652;-65
2022/09/03 00:45:01;;;;;;;2.10;1.95;;;15.90;99.90;;;;;;5117913;28;20191;-65
2022/09/03 00:47:33;;;;;;;2.40;2.17;;;15.90;99.90;;;;;;5119371;28;20221;-66
2022/09/03 00:50:05;;;;;;;2.50;2.00;;;15.90;99.90;;;;;;5116679;28;20205;-65
2022/09/03 00:52:34;;;;;;;2.45;2.17;;;15.80;99.90;;;;;;5116813;28;20255;-66
2022/09/03 00:55:34;;;;;;;2.75;2.30;;;15.70;99.90;;;;;;5116546;28;20260;-65
2022/09/03 00:58:25;;;;;;;5.07;2.20;;;15.70;99.90;;;;;;5116532;28;20212;-65
2022/09/03 01:00:51;;;;;;;2.95;2.20;;;15.70;99.90;;;;;;5117652;28;20169;-66
2022/09/03 01:03:29;;;;;;;3.05;2.05;;;15.70;99.90;;;;;;5117972;28;20180;-65
2022/09/03 01:06:20;;;;;;;2.78;2.15;;;15.70;99.90;;;;;;5117881;28;20199;-66
2022/09/03 01:08:49;;;;;;;2.40;2.20;;;15.70;99.90;;;;;;5118099;28;20238;-66
2022/09/03 01:12:12;;;;;;;2.85;2.25;;;15.70;99.90;;;;;;5117839;28;20188;-66
2022/09/03 01:15:19;;;;;;;3.33;2.28;;;15.70;99.90;;;;;;5109592;28;20271;-66
2022/09/03 01:18:09;;;;;;;2.30;2.10;;;15.60;99.90;;;;;;5108308;28;20206;-66
2022/09/03 01:20:34;;;;;;;4.15;2.40;;;15.60;99.90;;;;;;5117533;28;20189;-65
2022/09/03 01:23:19;;;;;;;2.65;2.10;;;15.50;99.90;;;;;;5117605;28;20183;-66
2022/09/03 01:26:26;;;;;;;3.10;2.25;;;15.50;99.90;;;;;;5122584;28;20679;-65
2022/09/03 01:29:00;;;;;;;2.20;2.00;;;15.50;99.90;;;;;;5120806;28;20710;-65
2022/09/03 01:31:46;;;;;;;3.13;2.40;;;15.50;99.90;;;;;;5121027;27;20159;-65
2022/09/03 01:34:21;;;;;;;2.72;2.40;;;15.40;99.90;;;;;;5117781;28;20164;-66
2022/09/03 01:37:00;;;;;;;3.85;2.30;;;15.40;99.90;;;;;;5115891;28;20558;-65
2022/09/03 01:39:47;;;;;;;2.40;2.20;;;15.40;99.90;;;;;;5117212;28;20161;-65
2022/09/03 01:42:47;;;;;;;2.00;1.90;;;15.40;99.90;;;;;;5115838;28;20527;-65
2022/09/03 01:45:42;;;;;;;2.78;2.55;;;15.40;99.90;;;;;;5116987;28;20196;-66
2022/09/03 01:48:34;;;;;;;3.05;2.20;;;15.30;99.90;;;;;;5112184;28;20246;-66
2022/09/03 01:51:21;;;;;;;3.03;2.45;;;15.30;99.90;;;;;;5114587;28;20580;-65
2022/09/03 01:54:15;;;;;;;3.58;2.55;;;15.30;99.90;;;;;;5116813;27;20160;-65
2022/09/03 01:56:49;;;;;;;2.70;2.33;;;15.20;99.90;;;;;;5116637;28;20192;-66
2022/09/03 01:59:41;;;;;;;4.15;2.78;;;15.20;99.90;;;;;;5116370;28;20176;-65
2022/09/03 02:02:18;;;;;;;2.50;2.30;;;15.10;99.90;;;;;;5108774;28;20265;-66
2022/09/03 02:04:58;;;;;;;2.92;2.60;;;15.10;99.90;;;;;;5115667;28;20531;-66
2022/09/03 02:07:29;;;;;;;2.78;2.55;;;15.10;99.90;;;;;;5116772;28;20152;-66
2022/09/03 02:09:54;;;;;;;5.18;2.65;;;15.10;99.90;;;;;;5116928;28;20188;-66
2022/09/03 02:12:20;;;;;;;5.75;2.70;;;15.10;99.90;;;;;;5116649;28;20720;-65
2022/09/03 02:14:47;;;;;;;3.30;2.80;;;15.10;99.90;;;;;;5116126;28;20169;-65
2022/09/03 02:17:13;;;;;;;4.90;2.83;;;15.10;99.90;;;;;;5116157;28;20184;-66
2022/09/03 02:19:39;;;;;;;4.32;2.88;;;15.10;99.90;;;;;;5116472;28;20192;-65
2022/09/03 02:22:05;;;;;;;3.65;2.83;;;15.10;99.90;;;;;;5116112;28;20168;-66
2022/09/03 02:24:31;;;;;;;3.67;3.00;;;15.00;99.90;;;;;;5114825;28;20180;-65
2022/09/03 02:26:57;;;;;;;4.65;3.22;;;15.00;99.90;;;;;;5116034;28;20716;-66
2022/09/03 02:29:24;;;;;;;3.83;2.92;;;14.90;99.90;;;;;;5115662;28;20200;-66
2022/09/03 02:31:50;;;;;;;4.13;2.63;;;14.90;99.90;;;;;;5116273;28;20168;-66
2022/09/03 02:34:16;;;;;;;4.22;2.90;;;14.90;99.90;;;;;;5116004;28;20173;-66
2022/09/03 02:36:45;;;;;;;3.97;2.67;;;14.80;99.90;;;;;;5116018;28;20200;-66
2022/09/03 02:39:12;;;;;;;4.13;2.75;;;14.60;99.90;;;;;;5115872;28;20181;-66
2022/09/03 02:41:38;;;;;;;3.60;2.53;;;14.50;99.90;;;;;;5116034;28;20176;-66
2022/09/03 02:44:30;;;;;;;3.58;2.67;;;14.50;99.90;;;;;;5115410;28;20183;-66
2022/09/03 02:47:01;;;;;;;3.20;2.60;;;14.50;99.90;;;;;;5115572;28;20192;-66
2022/09/03 02:49:27;;;;;;;3.28;2.97;;;14.40;99.90;;;;;;5114223;28;20325;-65
2022/09/03 02:51:59;;;;;;;2.83;2.42;;;14.30;99.90;;;;;;5115487;28;20168;-65
2022/09/03 02:54:27;;;;;;;3.58;3.08;;;14.20;99.90;;;;;;5114768;28;20164;-65
2022/09/03 02:56:53;;;;;;;3.72;2.80;;;14.20;99.90;;;;;;5115817;28;20192;-65
2022/09/03 02:59:21;;;;;;;3.08;2.70;;;14.10;99.90;;;;;;5115051;28;20215;-65
2022/09/03 03:01:47;;;;;;;4.43;2.63;;;14.10;99.90;;;;;;5115465;28;20172;-65
2022/09/03 03:04:14;;;;;;;4.50;2.92;;;14.00;99.90;;;;;;5114035;28;20176;-65
2022/09/03 03:06:39;;;;;;;3.85;2.70;;;13.90;99.90;;;;;;5115731;28;20196;-65
2022/09/03 03:09:05;;;;;;;5.05;2.97;;;13.90;99.90;;;;;;5114956;28;20677;-65
2022/09/03 03:11:32;;;;;;;5.32;3.03;;;13.90;99.90;;;;;;5115242;28;20172;-65
2022/09/03 03:13:57;;;;;;;2.90;2.60;;;13.90;99.90;;;;;;5113385;28;20177;-65
2022/09/03 03:16:23;;;;;;;3.85;3.10;;;13.80;99.90;;;;;;5114940;28;20188;-65
2022/09/03 03:18:49;;;;;;;3.72;2.67;;;13.70;99.90;;;;;;5115394;28;20180;-65
2022/09/03 03:21:17;;;;;;;3.22;2.80;;;13.70;99.90;;;;;;5115468;28;20290;-65
2022/09/03 03:23:43;;;;;;;3.20;2.70;;;13.70;99.90;;;;;;5114928;28;20183;-65
2022/09/03 03:26:17;;;;;;;3.20;2.90;;;13.60;99.90;;;;;;5114715;28;20196;-65
2022/09/03 03:28:43;;;;;;;5.03;2.88;;;13.60;99.90;;;;;;5113301;28;20285;-65
2022/09/03 03:31:12;;;;;;;3.10;2.80;;;13.60;99.90;;;;;;5114770;28;20175;-65
2022/09/03 03:33:38;;;;;;;3.55;2.90;;;13.60;99.90;;;;;;5114760;28;20168;-65
2022/09/03 03:36:10;;;;;;;5.40;3.05;;;13.60;99.90;;;;;;5114517;28;20195;-65
2022/09/03 03:38:36;;;;;;;3.42;2.90;;;13.50;99.90;;;;;;5113517;28;20172;-65
2022/09/03 03:41:14;;;;;;;4.40;3.13;;;13.50;99.90;;;;;;5114660;28;20289;-65
2022/09/03 03:43:40;;;;;;;3.63;3.10;;;13.30;99.90;;;;;;5114531;28;20230;-65
2022/09/03 03:46:06;;;;;;;3.10;2.80;;;13.40;99.90;;;;;;5114825;28;20210;-65
2022/09/03 03:48:36;;;;;;;4.03;2.90;;;13.40;99.90;;;;;;5114671;28;20680;-65
2022/09/03 03:51:07;;;;;;;5.32;3.00;;;13.30;99.90;;;;;;5114903;28;20160;-65
2022/09/03 03:53:34;;;;;;;3.47;3.08;;;13.30;99.90;;;;;;5114749;28;20292;-65
2022/09/03 03:56:05;;;;;;;4.13;3.15;;;13.20;99.90;;;;;;5114330;28;20191;-66
2022/09/03 03:58:32;;;;;;;3.10;2.65;;;13.20;99.90;;;;;;5114339;28;20176;-65
2022/09/03 04:01:17;;;;;;;3.58;3.08;;;13.10;99.90;;;;;;5114232;28;20221;-65
2022/09/03 04:03:44;;;;;;;3.72;3.00;;;13.10;99.90;;;;;;5114654;28;20157;-65
2022/09/03 04:06:14;;;;;;;3.13;2.80;;;13.10;99.90;;;;;;5113327;28;20767;-65
2022/09/03 04:08:41;;;;;;;3.90;2.63;;;13.10;99.90;;;;;;5112968;28;20241;-64
2022/09/03 04:11:12;;;;;;;3.35;3.03;;;13.10;99.90;;;;;;5114307;28;20535;-65
2022/09/03 04:13:41;;;;;;;3.30;3.00;;;13.00;99.90;;;;;;5112693;28;20548;-65
2022/09/03 04:16:09;;;;;;;3.00;2.80;;;13.00;99.90;;;;;;5112714;28;20247;-64
2022/09/03 04:18:36;;;;;;;5.32;3.00;;;13.00;99.90;;;;;;5112729;28;20656;-65
2022/09/03 04:21:06;;;;;;;4.20;2.88;;;13.00;99.90;;;;;;5113992;28;20249;-64
2022/09/03 04:23:36;;;;;;;3.50;3.00;;;13.00;99.90;;;;;;5114078;28;20159;-65
2022/09/03 04:26:04;;;;;;;3.45;2.80;;;13.00;99.90;;;;;;5112758;28;20207;-64
2022/09/03 04:28:31;;;;;;;3.35;2.85;;;12.90;99.90;;;;;;5113845;28;20200;-65
2022/09/03 04:31:10;;;;;;;3.08;2.65;;;12.90;99.90;;;;;;5114316;28;20172;-65
2022/09/03 04:33:37;;;;;;;3.63;2.60;;;12.90;99.90;;;;;;5114017;28;20183;-65
2022/09/03 04:36:04;;;;;;;3.80;2.90;;;12.80;99.90;;;;;;5112901;28;20605;-65
2022/09/03 04:38:38;;;;;;;4.27;2.73;;;12.80;99.90;;;;;;5113900;28;20183;-65
2022/09/03 04:41:11;;;;;;;3.25;2.95;;;12.80;99.90;;;;;;5113019;28;20563;-64
2022/09/03 04:43:37;;;;;;;3.03;2.77;;;12.80;99.90;;;;;;5114063;28;20168;-65
2022/09/03 04:46:06;;;;;;;4.77;3.07;;;12.80;99.90;;;;;;5114032;28;20246;-65
2022/09/03 04:48:36;;;;;;;2.93;2.70;;;12.80;99.90;;;;;;5113716;28;20220;-64
2022/09/03 04:51:13;;;;;;;3.20;2.90;;;12.80;99.90;;;;;;5114501;28;20176;-65
2022/09/03 04:53:46;;;;;;;3.90;2.83;;;12.80;99.90;;;;;;5114514;28;20153;-65
2022/09/03 04:56:17;;;;;;;3.40;3.10;;;12.90;99.90;;;;;;5112502;28;20656;-66
2022/09/03 04:58:44;;;;;;;8.63;3.03;;;12.80;99.90;;;;;;5113722;28;20237;-65
2022/09/03 05:01:11;;;;;;;2.95;2.72;;;12.80;99.90;;;;;;5114009;28;20541;-66
2022/09/03 05:03:40;;;;;;;3.20;2.90;;;12.80;99.90;;;;;;5112547;28;20691;-64
2022/09/03 05:06:08;;;;;;;5.33;2.97;;;12.70;99.90;;;;;;5113802;28;20669;-66
2022/09/03 05:08:36;;;;;;;7.17;3.17;;;12.70;99.90;;;;;;5114070;28;20196;-65
2022/09/03 05:11:14;;;;;;;4.28;3.25;;;12.70;99.90;;;;;;5112729;28;20173;-66
2022/09/03 05:13:41;;;;;;;3.87;2.90;;;12.70;99.90;;;;;;5114222;28;20215;-66
2022/09/03 05:16:12;;;;;;;5.50;3.20;;;12.70;99.90;;;;;;5113814;28;20184;-66
2022/09/03 05:18:38;;;;;;;5.28;3.30;;;12.70;99.90;;;;;;5117753;28;20164;-66
2022/09/03 05:21:16;;;;;;;4.33;3.53;;;12.70;99.90;;;;;;5117878;28;20621;-66
2022/09/03 05:23:44;;;;;;;3.23;3.00;;;12.70;99.90;;;;;;5117267;28;20533;-66
2022/09/03 05:26:13;;;;;;;3.80;3.00;;;12.70;99.90;;;;;;5115947;28;20640;-65
2022/09/03 05:28:52;;;;;;;3.15;2.85;;;12.60;99.90;;;;;;5117072;28;20262;-66
2022/09/03 05:31:18;;;;;;;4.10;2.63;;;12.70;99.90;;;;;;5117260;28;20201;-66
2022/09/03 05:33:49;;;;;;;3.35;2.90;;;12.80;99.90;;;;;;5117394;28;20184;-66
2022/09/03 05:36:18;;;;;;;6.10;2.72;;;12.80;99.90;;;;;;5117415;28;20199;-66
2022/09/03 05:38:53;;;;;;;3.27;2.73;;;12.90;99.90;;;;;;5115953;28;20173;-66
2022/09/03 05:41:21;;;;;;;3.40;3.10;;;12.90;99.90;;;;;;5117183;28;20156;-65
2022/09/03 05:43:54;;;;;;;3.60;3.03;;;12.90;99.90;;;;;;5117203;28;20153;-66
2022/09/03 05:46:20;;;;;;;3.73;2.70;;;13.00;99.90;;;;;;5117378;28;20188;-66
2022/09/03 05:48:46;;;;;;;3.53;3.22;;;13.10;99.90;;;;;;5116017;28;20204;-66
2022/09/03 05:51:15;;;;;;;7.50;4.80;;;13.20;99.90;;;;;;5117493;28;20206;-65
2022/09/03 05:53:44;;;;;;;4.80;4.00;;;13.30;99.90;;;;;;5116908;27;20183;-68
2022/09/03 05:56:16;;;;;;;5.28;3.42;;;13.40;99.90;;;;;;5115588;28;20196;-66
2022/09/03 05:58:48;;;;;;;4.15;2.97;;;13.40;99.90;;;;;;5117044;27;20567;-66
2022/09/03 06:01:29;;;;;;;3.55;3.20;;;13.50;99.90;;;;;;5116950;28;20164;-66
2022/09/03 06:03:57;;;;;;;3.78;2.88;;;13.60;99.90;;;;;;5116513;28;20172;-65
2022/09/03 06:06:25;;;;;;;3.97;2.70;;;13.70;99.90;;;;;;5116398;28;20200;-66
2022/09/03 06:09:04;;;;;;;2.70;2.50;;;13.80;99.90;;;;;;5116429;28;20199;-65
2022/09/03 06:11:31;;;;;;;3.53;2.65;;;13.90;99.90;;;;;;5116385;28;20642;-66
2022/09/03 06:14:01;;;;;;;3.65;2.90;;;14.10;99.90;;;;;;5114853;28;20173;-66
2022/09/03 06:16:28;;;;;;;4.80;2.90;;;14.20;99.90;;;;;;5116202;27;20212;-66
2022/09/03 06:18:55;;;;;;;2.85;2.50;;;14.30;99.90;;;;;;5114923;28;20192;-66
2022/09/03 06:21:24;;;;;;;2.83;2.53;;;14.40;99.90;;;;;;5116983;28;20160;-66
2022/09/03 06:23:55;;;;;;;2.53;2.33;;;14.60;99.90;;;;;;5116523;28;20183;-69
2022/09/03 06:26:27;;;;;;;2.72;2.20;;;14.70;99.90;;;;;;5116252;28;20204;-65
2022/09/03 06:28:58;;;;;;;2.70;2.50;;;14.90;99.90;;;;;;5115835;28;20204;-66
2022/09/03 06:31:25;;;;;;;2.38;2.17;;;15.00;99.90;;;;;;5117453;28;20151;-67
2022/09/03 06:33:54;;;;;;;2.80;2.20;;;15.10;99.90;;;;;;5116462;28;20165;-66
2022/09/03 06:36:22;;;;;;;2.38;2.17;;;15.30;99.90;;;;;;5114628;28;20192;-66
2022/09/03 06:38:54;;;;;;;2.40;2.20;;;15.40;99.90;;;;;;5115019;28;20664;-66
2022/09/03 06:41:24;;;;;;;2.92;2.50;;;15.60;99.90;;;;;;5116325;28;20160;-66
2022/09/03 06:43:56;;;;;;;2.47;2.33;;;15.70;99.90;;;;;;5115383;28;20180;-66
2022/09/03 06:46:23;;;;;;;2.50;2.30;;;15.80;99.90;;;;;;5116405;28;20543;-66
2022/09/03 06:48:54;;;;;;;2.83;2.38;;;16.00;99.90;;;;;;5115439;28;20200;-66
2022/09/03 06:51:25;;;;;;;2.40;2.20;;;16.10;99.90;;;;;;5115904;28;20148;-66
2022/09/03 06:53:55;;;;;;;2.60;2.40;;;16.30;99.90;;;;;;5115374;28;20177;-66
2022/09/03 06:56:25;;;;;;;1.92;1.83;;;16.30;99.90;;;;;;5115368;27;20237;-66
2022/09/03 06:58:55;;;;;;;2.20;2.10;;;16.50;99.90;;;;;;5115156;28;20172;-66
2022/09/03 07:01:24;;;;;;;2.10;2.00;;;16.60;99.90;;;;;;5115777;28;20272;-67
2022/09/03 07:03:55;;;;;;;2.03;1.92;;;16.60;99.90;;;;;;5115398;28;20180;-66
2022/09/03 07:06:26;;;;;;;2.40;2.20;;;16.80;99.90;;;;;;5114972;28;20275;-66
2022/09/03 07:08:53;;;;;;;2.10;1.90;;;16.90;99.90;;;;;;5115630;28;20196;-66
2022/09/03 07:11:32;;;;;;;5.05;2.20;;;17.00;99.90;;;;;;5114935;28;20165;-66
2022/09/03 07:14:02;;;;;;;1.95;1.85;;;17.10;99.90;;;;;;5113640;28;20199;-66
2022/09/03 07:16:36;;;;;;;2.20;2.05;;;17.20;99.90;;;;;;5114900;28;20200;-66
2022/09/03 07:19:08;;;;;;;3.28;2.08;;;17.30;99.90;;;;;;5115006;28;20565;-66
2022/09/03 07:21:35;;;;;;;2.03;1.83;;;17.40;99.90;;;;;;5115297;28;20618;-66
2022/09/03 07:24:02;;;;;;;2.10;1.90;;;17.50;99.90;;;;;;5114557;28;20177;-65
2022/09/03 07:26:34;;;;;;;2.00;1.90;;;17.60;99.90;;;;;;5114493;28;20224;-64
2022/09/03 07:29:01;;;;;;;2.03;1.90;;;17.70;99.90;;;;;;5114166;28;20224;-64
2022/09/03 07:31:36;;;;;;;2.05;1.85;;;17.80;99.90;;;;;;5114513;28;20175;-64
2022/09/03 07:34:08;;;;;;;2.42;2.10;;;17.90;99.90;;;;;;5114593;28;20153;-64
2022/09/03 07:36:46;;;;;;;2.70;2.10;;;18.00;99.90;;;;;;5114359;28;20739;-64
2022/09/03 07:39:13;;;;;;;3.85;2.15;;;18.20;99.90;;;;;;5114583;28;20612;-64
2022/09/03 07:41:44;;;;;;;3.70;2.22;;;18.40;99.90;;;;;;5114442;28;20169;-64
2022/09/03 07:44:18;;;;;;;4.90;2.20;;;18.60;99.90;;;;;;5114111;28;20153;-64
2022/09/03 07:46:46;;;;;;;2.67;1.92;;;18.70;99.90;;;;;;5114499;28;20716;-65
2022/09/03 07:49:12;;;;;;;4.63;2.20;;;18.90;99.90;;;;;;5114536;28;20192;-64
2022/09/03 07:51:38;;;;;;;2.30;2.10;;;19.00;99.90;;;;;;5114510;28;20225;-64
2022/09/03 07:54:07;;;;;;;3.53;1.88;;;19.00;99.90;;;;;;5114471;28;20516;-65
2022/09/03 07:56:36;;;;;;;2.65;1.92;;;19.00;99.90;;;;;;5115743;28;20187;-65
2022/09/03 07:59:03;;;;;;;2.67;1.80;;;19.00;99.90;;;;;;5115460;28;20180;-65
2022/09/03 08:01:31;;;;;;;2.92;1.95;;;19.10;99.90;;;;;;5115393;28;20251;-65
2022/09/03 08:03:57;;;;;;;2.65;1.75;;;19.10;99.90;;;;;;5114593;28;20176;-65
2022/09/03 08:06:26;;;;;;;4.68;2.03;;;19.10;99.90;;;;;;5114208;28;20192;-65
2022/09/03 08:09:00;;;;;;;2.75;2.08;;;19.20;99.90;;;;;;5112790;28;20211;-65
2022/09/03 08:11:28;;;;;;;1.83;1.73;;;19.30;99.90;;;;;;5113774;28;20159;-65
2022/09/03 08:14:05;;;;;;;3.05;1.95;;;19.40;99.90;;;;;;5113854;28;20169;-65
2022/09/03 08:16:41;;;;;;;3.22;2.20;;;19.50;99.90;;;;;;5113739;28;20188;-65
2022/09/03 08:19:07;;;;;;;2.50;2.15;;;19.60;99.90;;;;;;5113883;28;20184;-65
2022/09/03 08:21:33;;;;;;;3.58;2.10;;;19.60;99.90;;;;;;5113734;28;20177;-65
2022/09/03 08:24:02;;;;;;;4.25;2.03;;;19.70;99.90;;;;;;5113763;28;20545;-65
2022/09/03 08:26:33;;;;;;;4.20;2.10;;;19.70;99.90;;;;;;5113607;28;20285;-65
2022/09/03 08:29:00;;;;;;;7.32;2.15;;;19.70;99.90;;;;;;5113876;28;20204;-65
2022/09/03 08:31:27;;;;;;;2.05;1.70;;;19.70;99.90;;;;;;5113458;28;20169;-65
2022/09/03 08:33:54;;;;;;;2.55;2.30;;;19.70;99.90;;;;;;5113819;28;20651;-65
2022/09/03 08:36:24;;;;;;;2.55;2.08;;;19.70;99.90;;;;;;5112339;28;20196;-66
2022/09/03 08:38:54;;;;;;;3.13;1.98;;;19.70;99.90;;;;;;5112480;28;20240;-66
2022/09/03 08:41:44;;;;;;;3.20;1.80;;;19.70;99.90;;;;;;5113802;28;20175;-66
2022/09/03 08:44:29;;;;;;;4.60;2.10;;;19.80;99.90;;;;;;5113434;28;20169;-67
2022/09/03 08:47:00;;;;;;;6.53;2.20;;;19.90;99.90;;;;;;5113551;28;20278;-66
2022/09/03 08:49:30;;;;;;;2.42;1.77;;;20.00;99.90;;;;;;5113708;28;20279;-66
2022/09/03 08:52:02;;;;;;;3.70;1.80;;;20.30;99.90;;;;;;5114800;28;20191;-65
2022/09/03 08:54:30;;;;;;;1.73;1.40;;;20.40;99.90;;;;;;5117806;28;20188;-65
2022/09/03 08:57:01;;;;;;;3.45;1.77;;;20.50;99.90;;;;;;5117250;28;20188;-65
2022/09/03 08:59:29;;;;;;;3.03;1.77;;;20.80;99.90;;;;;;5117157;28;20181;-66
2022/09/03 09:02:05;;;;;;;2.97;1.80;;;21.10;99.90;;;;;;5117288;28;20211;-66
2022/09/03 09:04:44;;;;;;;2.15;1.60;;;21.40;99.90;;;;;;5117684;28;20676;-66
2022/09/03 09:07:43;;;;;;;2.58;1.70;;;21.70;99.90;;;;;;5117245;28;20200;-65
2022/09/03 09:10:15;;;;;;;5.60;1.80;;;22.00;99.90;;;;;;5115934;28;20253;-66
2022/09/03 09:13:02;;;;;;;3.97;1.88;;;22.10;99.90;;;;;;5117436;27;20187;-66
2022/09/03 09:15:47;;;;;;;3.13;1.70;;;22.30;99.90;;;;;;5116747;28;20192;-66
2022/09/03 09:18:24;;;;;;;2.17;1.90;;;22.40;99.90;;;;;;5116975;28;20153;-73
2022/09/03 09:21:06;;;;;;;1.85;1.67;;;22.40;99.90;;;;;;5115634;28;20187;-66
2022/09/03 09:23:38;;;;;;;3.58;1.42;;;22.50;99.90;;;;;;5117578;28;20163;-66
2022/09/03 09:26:10;;;;;;;3.55;1.80;;;22.50;99.90;;;;;;5115630;28;20192;-65
2022/09/03 09:28:38;;;;;;;4.72;2.00;;;22.70;99.90;;;;;;5116822;27;20202;-65
2022/09/03 09:31:07;;;;;;;2.17;1.70;;;22.80;99.90;;;;;;5116385;28;20221;-65
2022/09/03 09:33:34;;;;;;;3.13;1.88;;;22.90;99.90;;;;;;5116622;28;20160;-65
2022/09/03 09:36:07;;;;;;;2.05;1.80;;;23.00;99.90;;;;;;5115211;28;20199;-65
2022/09/03 09:38:35;;;;;;;2.95;1.77;;;23.10;99.90;;;;;;5115324;28;20204;-65
2022/09/03 09:41:17;;;;;;;1.98;1.60;;;23.20;99.90;;;;;;5115390;28;20520;-65
2022/09/03 09:43:46;;;;;;;1.90;1.65;;;23.30;99.90;;;;;;5117535;28;20173;-65
2022/09/03 09:46:15;;;;;;;3.88;1.70;;;23.40;99.90;;;;;;5117185;27;20192;-66
2022/09/03 09:48:53;;;;;;;3.22;1.77;;;23.40;99.90;;;;;;5116709;28;20198;-66
2022/09/03 09:51:21;;;;;;;1.60;1.50;;;23.50;99.90;;;;;;5115052;28;20701;-66
2022/09/03 09:53:47;;;;;;;2.63;1.95;;;23.50;99.90;;;;;;5116531;28;20248;-64
2022/09/03 09:56:21;;;;;;;4.90;2.03;;;23.50;99.90;;;;;;5116145;28;20195;-64
2022/09/03 09:58:47;;;;;;;2.85;2.00;;;23.40;99.90;;;;;;5116150;28;20263;-65
2022/09/03 10:01:22;;;;;;;1.77;1.67;;;23.50;99.90;;;;;;5114852;28;20567;-64
2022/09/03 10:03:56;;;;;;;2.50;1.98;;;23.50;99.90;;;;;;5116483;28;20572;-65
2022/09/03 10:09:22;;;;;;;4.55;2.00;;;23.70;99.90;;;;;;5116243;28;20283;-65
2022/09/03 10:12:18;;;;;;;2.58;1.80;;;23.80;99.90;;;;;;5117586;27;20574;-67
2022/09/03 10:15:18;;;;;;;2.03;1.92;;;23.80;99.90;;;;;;5117165;28;20153;-67
2022/09/03 10:17:51;;;;;;;1.65;1.55;;;23.90;99.90;;;;;;5117906;28;20155;-67
2022/09/03 10:20:26;;;;;;;1.70;1.60;;;24.00;99.90;;;;;;5117337;28;20215;-66
2022/09/03 10:23:03;;;;;;;4.43;1.80;;;24.00;99.90;;;;;;5115709;28;20706;-66
2022/09/03 10:25:38;;;;;;;2.38;2.00;;;24.10;99.90;;;;;;5115711;28;20196;-67
2022/09/03 10:28:08;;;;;;;2.72;1.80;;;24.20;99.90;;;;;;5115528;28;20267;-66
2022/09/03 10:30:45;;;;;;;2.38;1.63;;;24.20;99.90;;;;;;5115816;28;20669;-66
2022/09/03 10:33:23;;;;;;;3.47;1.95;;;24.00;99.90;;;;;;5114303;28;20176;-65
2022/09/03 10:35:59;;;;;;;5.20;1.85;;;23.90;99.90;;;;;;5115723;28;20187;-66
2022/09/03 10:38:29;;;;;;;1.90;1.80;;;23.70;99.90;;;;;;5115605;28;20249;-66
2022/09/03 10:41:07;;;;;;;3.03;1.85;;;23.60;99.90;;;;;;5115701;28;20326;-65
2022/09/03 10:43:50;;;;;;;2.08;1.88;;;23.60;99.90;;;;;;5115366;28;20175;-66
2022/09/03 10:46:25;;;;;;;2.53;1.95;;;23.60;99.90;;;;;;5113697;28;20286;-66
2022/09/03 10:49:19;;;;;;;4.10;2.17;;;23.80;99.90;;;;;;5115569;28;20184;-65
2022/09/03 10:51:55;;;;;;;2.83;2.08;;;23.80;99.90;;;;;;5115467;28;20209;-66
2022/09/03 10:54:31;;;;;;;3.40;1.95;;;23.90;99.90;;;;;;5116700;28;20252;-67
2022/09/03 10:57:07;;;;;;;2.38;2.10;;;24.10;99.90;;;;;;5115642;27;20192;-67
2022/09/03 10:59:45;;;;;;;4.20;2.15;;;24.40;99.90;;;;;;5114860;28;20207;-68
2022/09/03 11:02:35;;;;;;;2.28;2.05;;;24.70;99.90;;;;;;5114062;28;20186;-67
2022/09/03 11:05:06;;;;;;;2.10;1.85;;;24.80;99.90;;;;;;5115090;28;20164;-66
2022/09/03 11:07:50;;;;;;;2.80;1.92;;;25.00;99.90;;;;;;5113540;28;20652;-67
2022/09/03 11:10:28;;;;;;;6.00;2.40;;;25.00;99.90;;;;;;5114879;28;20191;-67
2022/09/03 11:13:06;;;;;;;4.20;2.25;;;24.90;99.90;;;;;;5115257;28;20185;-67
2022/09/03 11:15:38;;;;;;;3.13;2.50;;;24.80;99.90;;;;;;5113052;28;20276;-68
2022/09/03 11:18:34;;;;;;;4.38;2.55;;;24.70;99.90;;;;;;5114879;28;20191;-67
2022/09/03 11:21:05;;;;;;;2.55;2.33;;;24.60;99.90;;;;;;5113163;27;20181;-67
2022/09/03 11:23:36;;;;;;;4.25;2.55;;;24.60;99.90;;;;;;5114977;28;20160;-68
2022/09/03 11:26:07;;;;;;;4.88;2.40;;;24.60;99.90;;;;;;5114928;28;20233;-67
2022/09/03 11:28:44;;;;;;;4.38;2.50;;;24.60;99.90;;;;;;5114590;28;20206;-67
2022/09/03 11:31:34;;;;;;;2.85;2.20;;;24.60;99.90;;;;;;5114506;28;20183;-67
2022/09/03 11:34:14;;;;;;;4.28;2.45;;;24.80;99.90;;;;;;5114646;28;20225;-67
2022/09/03 11:36:40;;;;;;;2.92;2.15;;;25.00;99.90;;;;;;5114704;28;20188;-67
2022/09/03 11:39:38;;;;;;;4.60;2.10;;;25.10;99.90;;;;;;5113280;28;20164;-67
2022/09/03 11:42:11;;;;;;;9.07;3.50;;;25.10;99.90;;;;;;5106154;28;20189;-67
2022/09/03 11:44:42;;;;;;;2.88;2.47;;;25.30;99.90;;;;;;5114978;28;20163;-67
2022/09/03 11:47:20;;;;;;;2.97;2.30;;;25.40;99.90;;;;;;5114348;28;20199;-67
2022/09/03 11:49:50;;;;;;;2.30;2.08;;;25.40;99.90;;;;;;5114325;28;20188;-67
2022/09/03 11:52:31;;;;;;;3.20;2.42;;;25.40;99.90;;;;;;5113014;28;20161;-68
2022/09/03 11:54:57;;;;;;;2.25;2.05;;;25.40;99.90;;;;;;5114422;28;20164;-67
2022/09/03 11:57:30;;;;;;;2.30;2.03;;;25.30;99.90;;;;;;5114293;28;20176;-67
2022/09/03 12:00:13;;;;;;;3.70;2.13;;;25.00;99.90;;;;;;5114164;28;20176;-66
2022/09/03 12:03:02;;;;;;;2.10;1.90;;;25.00;99.90;;;;;;5114481;28;20641;-67
2022/09/03 12:06:09;;;;;;;3.75;2.60;;;24.80;99.90;;;;;;5115082;28;20192;-67
2022/09/03 12:08:51;;;;;;;3.45;2.00;;;24.60;99.90;;;;;;5115079;28;20266;-67
2022/09/03 12:11:41;;;;;;;2.72;2.22;;;24.60;99.90;;;;;;5115169;28;20165;-67
2022/09/03 12:14:29;;;;;;;2.30;2.10;;;24.70;99.90;;;;;;5114202;28;20243;-67
2022/09/03 12:17:11;;;;;;;2.92;1.90;;;24.80;99.90;;;;;;5112748;28;20218;-67
2022/09/03 12:19:44;;;;;;;1.95;1.77;;;25.10;99.90;;;;;;5114353;28;20207;-71
2022/09/03 12:22:17;;;;;;;4.18;2.13;;;25.40;99.90;;;;;;5114867;28;20153;-73
2022/09/03 12:24:43;;;;;;;2.78;2.28;;;25.40;99.90;;;;;;5114019;28;20176;-72
2022/09/03 12:27:32;;;;;;;4.25;2.15;;;25.40;99.90;;;;;;5116166;28;20231;-72
2022/09/03 12:30:01;;;;;;;2.78;2.10;;;25.30;99.90;;;;;;5118060;28;20235;-71
2022/09/03 12:32:38;;;;;;;3.58;1.85;;;25.40;99.90;;;;;;5118508;28;20176;-72
2022/09/03 12:35:12;;;;;;;3.75;2.20;;;25.70;99.90;;;;;;5117073;28;20275;-70
2022/09/03 12:37:38;;;;;;;2.55;2.05;;;25.80;99.90;;;;;;5118670;28;20590;-70
2022/09/03 12:40:04;;;;;;;2.88;2.00;;;25.80;99.90;;;;;;5118372;28;20172;-70
2022/09/03 12:42:31;;;;;;;3.35;2.30;;;25.60;99.90;;;;;;5118988;28;20203;-70
2022/09/03 12:45:09;;;;;;;3.03;2.05;;;25.40;99.90;;;;;;5116818;28;20180;-70
2022/09/03 12:47:39;;;;;;;2.53;2.05;;;25.20;99.90;;;;;;5117024;28;20203;-70
2022/09/03 12:50:16;;;;;;;3.83;2.17;;;25.00;99.90;;;;;;5117832;28;20237;-70
2022/09/03 12:52:50;;;;;;;3.25;2.10;;;24.80;99.90;;;;;;5116723;28;20172;-70
2022/09/03 12:55:42;;;;;;;4.95;2.35;;;24.90;99.90;;;;;;5118168;28;20152;-70
2022/09/03 12:58:14;;;;;;;3.83;2.55;;;24.90;99.90;;;;;;5116430;28;20184;-70
2022/09/03 13:00:55;;;;;;;2.28;2.05;;;24.80;99.90;;;;;;5117614;28;20239;-70
2022/09/03 13:03:27;;;;;;;2.75;2.33;;;24.70;99.90;;;;;;5117577;28;20682;-70
2022/09/03 13:06:05;;;;;;;3.13;2.15;;;25.10;99.90;;;;;;5116433;28;20196;-71
2022/09/03 13:08:43;;;;;;;2.08;1.88;;;25.70;99.90;;;;;;5116297;28;20266;-71
2022/09/03 13:11:09;;;;;;;4.45;2.67;;;26.30;99.90;;;;;;5117678;27;20160;-70
2022/09/03 13:13:36;;;;;;;2.33;2.13;;;26.50;99.90;;;;;;5117426;28;20583;-70
2022/09/03 13:16:08;;;;;;;2.28;2.08;;;26.50;99.90;;;;;;5115781;28;20199;-70
2022/09/03 13:19:07;;;;;;;2.30;2.10;;;26.30;99.90;;;;;;5115678;28;20218;-71
2022/09/03 13:21:36;;;;;;;3.92;2.42;;;26.50;99.90;;;;;;5114792;28;20198;-71
2022/09/03 13:24:16;;;;;;;3.88;2.05;;;26.50;99.90;;;;;;5116090;28;20172;-71
2022/09/03 13:27:11;;;;;;;3.25;2.00;;;26.50;99.90;;;;;;5114672;28;20192;-70